Time;durP1;ratioP1;P1;durP2;ratioP2;P2;SDS_P1;SDS_P2;PMS_P1;PMS_P2;Temp;Humidity;BMP_temperature;BMP_pressure;BME280_temperature;BME280_humidity;BME280_pressure;Samples;Min_cycle;Max_cycle;Signal;HPM_P1;HPM_P2
2023/03/12 00:03:03;;;;;;;4.10;2.45;;;14.00;79.70;;;;;;10945792;32;20023;-73
2023/03/12 00:09:05;;;;;;;3.37;2.17;;;14.00;80.40;;;;;;10932514;32;20069;-73
2023/03/12 00:15:09;;;;;;;3.10;1.55;;;14.10;80.30;;;;;;10946403;32;20037;-73
2023/03/12 00:21:11;;;;;;;2.37;1.77;;;14.00;80.10;;;;;;10947978;32;20037;-73
2023/03/12 00:27:13;;;;;;;2.17;1.62;;;14.00;80.50;;;;;;10944987;32;20419;-73
2023/03/12 00:33:15;;;;;;;7.65;2.58;;;13.90;80.00;;;;;;10981699;27;20049;-73
2023/03/12 00:39:18;;;;;;;1.58;1.33;;;13.80;80.10;;;;;;10984163;32;20069;-73
2023/03/12 00:45:20;;;;;;;2.40;1.80;;;13.80;80.30;;;;;;10980499;32;20049;-73
2023/03/12 00:51:44;;;;;;;1.55;1.40;;;13.70;80.40;;;;;;10982541;32;20051;-73
2023/03/12 00:57:46;;;;;;;1.35;1.25;;;13.70;80.40;;;;;;10901392;32;20031;-73
2023/03/12 01:03:53;;;;;;;1.98;1.45;;;13.70;80.30;;;;;;10891057;32;20054;-73
2023/03/12 01:09:55;;;;;;;1.20;1.10;;;13.70;80.60;;;;;;10891058;32;20035;-73
2023/03/12 01:15:57;;;;;;;2.28;1.80;;;13.70;80.80;;;;;;10903124;32;20082;-73
2023/03/12 01:21:59;;;;;;;1.77;1.33;;;13.70;80.60;;;;;;10903237;32;20049;-73
2023/03/12 01:28:01;;;;;;;1.70;1.58;;;13.60;80.90;;;;;;10961352;32;20399;-71
2023/03/12 01:34:03;;;;;;;1.60;1.35;;;13.70;81.00;;;;;;10980880;32;20033;-71
2023/03/12 01:40:27;;;;;;;1.90;1.40;;;13.70;80.90;;;;;;10981453;32;20317;-71
2023/03/12 01:46:38;;;;;;;2.37;1.73;;;13.70;80.80;;;;;;10981146;32;20392;-71
2023/03/12 01:52:41;;;;;;;1.67;1.50;;;13.70;81.00;;;;;;10976382;32;20045;-71
2023/03/12 01:58:49;;;;;;;1.80;1.42;;;13.70;81.00;;;;;;10979894;32;20042;-71
2023/03/12 02:05:01;;;;;;;2.23;1.90;;;13.70;81.00;;;;;;10980181;32;20057;-71
2023/03/12 02:11:04;;;;;;;2.25;1.73;;;13.80;80.90;;;;;;10965117;32;20064;-72
2023/03/12 02:17:07;;;;;;;3.00;1.92;;;13.80;80.90;;;;;;10979813;32;20019;-71
2023/03/12 02:23:31;;;;;;;2.03;1.80;;;13.60;80.40;;;;;;10977112;32;20396;-72
2023/03/12 02:29:38;;;;;;;3.55;2.37;;;13.50;80.10;;;;;;10964981;32;20042;-72
2023/03/12 02:35:41;;;;;;;1.98;1.70;;;13.30;79.50;;;;;;10979526;32;20324;-73
2023/03/12 02:41:47;;;;;;;8.73;1.83;;;13.20;78.90;;;;;;10965401;32;20049;-72
2023/03/12 02:47:49;;;;;;;2.17;1.70;;;13.10;77.80;;;;;;10979702;32;20434;-72
2023/03/12 02:53:53;;;;;;;1.73;1.62;;;13.00;78.40;;;;;;10979138;32;20041;-73
2023/03/12 02:59:56;;;;;;;2.33;1.98;;;13.00;78.00;;;;;;10964995;32;20038;-71
2023/03/12 03:05:58;;;;;;;2.60;2.40;;;12.90;77.00;;;;;;10979826;32;20392;-71
2023/03/12 03:12:01;;;;;;;1.92;1.83;;;12.70;75.70;;;;;;10986801;32;20027;-71
2023/03/12 03:18:04;;;;;;;2.12;1.92;;;12.80;76.60;;;;;;10967623;32;20031;-70
2023/03/12 03:24:07;;;;;;;2.67;1.70;;;12.80;76.20;;;;;;10987062;32;20014;-70
2023/03/12 03:30:11;;;;;;;3.50;2.08;;;12.80;76.30;;;;;;10985487;32;20027;-70
2023/03/12 03:36:15;;;;;;;2.22;1.80;;;12.80;75.30;;;;;;10982212;32;20022;-71
2023/03/12 03:42:17;;;;;;;2.97;2.45;;;12.70;75.80;;;;;;10984958;32;20072;-71
2023/03/12 03:48:20;;;;;;;1.70;1.25;;;12.60;75.10;;;;;;10983962;32;20034;-70
2023/03/12 03:54:22;;;;;;;1.83;1.40;;;12.60;76.10;;;;;;10984333;32;20027;-70
2023/03/12 04:00:24;;;;;;;2.67;1.87;;;12.70;76.80;;;;;;10984552;32;20015;-70
2023/03/12 04:06:28;;;;;;;1.67;1.58;;;12.60;76.40;;;;;;10970796;32;20046;-71
2023/03/12 04:12:30;;;;;;;3.22;1.80;;;12.50;75.40;;;;;;10984183;32;20026;-72
2023/03/12 04:18:34;;;;;;;2.05;1.27;;;12.40;75.80;;;;;;10983561;32;20019;-71
2023/03/12 04:24:37;;;;;;;5.65;2.05;;;12.40;75.70;;;;;;10969755;32;20379;-71
2023/03/12 04:30:39;;;;;;;2.15;1.30;;;12.30;76.40;;;;;;10979230;32;20023;-72
2023/03/12 04:36:42;;;;;;;1.62;1.30;;;12.30;76.40;;;;;;10983248;32;20045;-72
2023/03/12 04:42:44;;;;;;;2.05;1.50;;;12.30;76.50;;;;;;10983638;32;20389;-73
2023/03/12 04:48:46;;;;;;;2.20;1.60;;;12.40;76.70;;;;;;10981248;32;20031;-72
2023/03/12 04:54:49;;;;;;;0.60;0.60;;;12.50;76.90;;;;;;10982526;32;20023;-72
2023/03/12 05:00:52;;;;;;;2.65;1.40;;;12.50;77.10;;;;;;10980747;32;20014;-72
2023/03/12 05:06:54;;;;;;;2.15;1.60;;;12.50;77.60;;;;;;10979361;32;20408;-72
2023/03/12 05:12:56;;;;;;;2.60;1.60;;;12.60;77.90;;;;;;10981732;32;20057;-72
2023/03/12 05:19:01;;;;;;;1.23;1.12;;;12.50;78.30;;;;;;10981750;32;20030;-72
2023/03/12 05:25:04;;;;;;;1.37;1.12;;;12.60;78.70;;;;;;10982051;32;20018;-72
2023/03/12 05:31:10;;;;;;;1.30;1.20;;;12.70;78.90;;;;;;10981096;32;20079;-72
2023/03/12 05:37:13;;;;;;;1.70;1.40;;;12.70;79.10;;;;;;10968151;32;20019;-72
2023/03/12 05:43:15;;;;;;;2.80;1.60;;;12.60;79.20;;;;;;10977474;32;20305;-72
2023/03/12 05:49:20;;;;;;;1.20;1.10;;;12.50;79.40;;;;;;10980580;32;20058;-71
2023/03/12 05:55:23;;;;;;;2.40;1.65;;;12.40;79.30;;;;;;10982294;32;20045;-74
2023/03/12 06:01:37;;;;;;;2.72;1.80;;;12.30;79.40;;;;;;10966373;32;20061;-74
2023/03/12 06:07:39;;;;;;;1.73;1.58;;;12.30;79.70;;;;;;10977014;32;20049;-74
2023/03/12 06:13:41;;;;;;;1.62;1.42;;;12.30;79.40;;;;;;10979989;32;20022;-74
2023/03/12 06:19:44;;;;;;;1.27;1.00;;;12.30;79.40;;;;;;10979791;32;20010;-74
2023/03/12 06:25:46;;;;;;;3.00;1.52;;;12.20;79.40;;;;;;10977109;32;20359;-74
2023/03/12 06:31:51;;;;;;;2.25;1.70;;;12.20;79.50;;;;;;10979591;32;20096;-74
2023/03/12 06:38:13;;;;;;;2.78;1.90;;;12.30;79.20;;;;;;10976746;32;20045;-71
2023/03/12 06:44:16;;;;;;;4.57;2.28;;;12.30;79.30;;;;;;10972552;32;20015;-71
2023/03/12 06:50:18;;;;;;;4.60;3.08;;;12.40;79.70;;;;;;10972663;32;20062;-71
2023/03/12 06:56:20;;;;;;;3.87;2.40;;;12.40;79.90;;;;;;10960816;32;20431;-71
2023/03/12 07:02:22;;;;;;;3.35;2.22;;;12.30;79.90;;;;;;10948790;32;20016;-71
2023/03/12 07:08:29;;;;;;;7.25;3.55;;;12.30;79.90;;;;;;10948657;32;20064;-72
2023/03/12 07:14:31;;;;;;;3.37;2.30;;;12.20;79.00;;;;;;10948444;32;20042;-71
2023/03/12 07:20:38;;;;;;;5.28;3.33;;;12.00;79.20;;;;;;10948261;32;20026;-71
2023/03/12 07:26:40;;;;;;;5.55;3.50;;;12.10;79.10;;;;;;10948461;32;20027;-71
2023/03/12 07:32:42;;;;;;;3.33;2.50;;;12.10;78.80;;;;;;10934025;32;20054;-71
2023/03/12 07:38:44;;;;;;;6.70;2.30;;;12.10;79.10;;;;;;10948851;32;20045;-71
2023/03/12 07:44:46;;;;;;;3.67;2.47;;;12.20;79.40;;;;;;10933595;32;20404;-72
2023/03/12 07:50:48;;;;;;;5.72;3.62;;;12.20;78.70;;;;;;10933636;32;20085;-71
2023/03/12 07:56:50;;;;;;;5.07;3.12;;;12.20;77.40;;;;;;10946689;32;20023;-71
2023/03/12 08:02:53;;;;;;;3.85;2.62;;;12.20;78.40;;;;;;10947335;32;20042;-71
2023/03/12 08:08:55;;;;;;;3.40;1.70;;;12.30;79.00;;;;;;10920444;32;20034;-72
2023/03/12 08:14:58;;;;;;;4.25;2.30;;;12.20;76.40;;;;;;10946365;32;20019;-72
2023/03/12 08:21:00;;;;;;;2.20;1.95;;;12.20;77.40;;;;;;10943868;32;20049;-71
2023/03/12 08:27:02;;;;;;;2.87;2.25;;;12.30;77.10;;;;;;10947187;32;20027;-72
2023/03/12 08:33:04;;;;;;;5.43;3.37;;;12.50;77.00;;;;;;11014044;27;20038;-72
2023/03/12 08:39:06;;;;;;;3.58;2.62;;;12.50;75.90;;;;;;11021873;32;20415;-72
2023/03/12 08:45:10;;;;;;;7.35;2.22;;;12.50;76.10;;;;;;11021050;32;20050;-72
2023/03/12 08:51:12;;;;;;;2.78;1.90;;;12.60;74.70;;;;;;11020852;32;20037;-72
2023/03/12 08:57:15;;;;;;;4.80;2.67;;;12.70;74.90;;;;;;11021718;32;20032;-72
2023/03/12 09:03:17;;;;;;;2.60;2.15;;;12.60;74.10;;;;;;11020743;32;20015;-72
2023/03/12 09:09:19;;;;;;;2.70;1.80;;;12.70;73.40;;;;;;11016842;32;20062;-72
2023/03/12 09:15:21;;;;;;;4.28;2.80;;;12.80;73.50;;;;;;11020436;32;20057;-73
2023/03/12 09:21:23;;;;;;;4.28;2.97;;;12.90;72.40;;;;;;11019424;32;20022;-72
2023/03/12 09:27:25;;;;;;;3.30;2.33;;;12.80;72.40;;;;;;11020100;32;20422;-72
2023/03/12 09:33:27;;;;;;;3.40;2.25;;;12.80;71.60;;;;;;11015314;32;20015;-72
2023/03/12 09:39:29;;;;;;;6.05;2.50;;;12.80;70.20;;;;;;11019085;32;20053;-72
2023/03/12 09:45:38;;;;;;;4.90;2.92;;;13.00;71.50;;;;;;11016901;32;20026;-72
2023/03/12 09:51:50;;;;;;;5.57;3.00;;;13.10;70.60;;;;;;11019086;32;20022;-72
2023/03/12 09:57:53;;;;;;;2.42;2.10;;;13.20;70.20;;;;;;11005037;32;20022;-72
2023/03/12 10:04:12;;;;;;;2.17;1.90;;;13.30;70.40;;;;;;11018865;32;20297;-72
2023/03/12 10:10:27;;;;;;;4.35;2.33;;;13.50;70.10;;;;;;11019832;32;20023;-72
2023/03/12 10:17:08;;;;;;;2.67;1.77;;;13.70;69.50;;;;;;11014878;32;20076;-71
2023/03/12 10:23:44;;;;;;;2.25;1.83;;;13.90;69.00;;;;;;10861332;32;20050;-72
2023/03/12 10:29:50;;;;;;;2.55;1.58;;;14.00;69.70;;;;;;10863354;32;20405;-72
2023/03/12 10:35:53;;;;;;;6.25;2.87;;;14.10;69.90;;;;;;10862576;32;20031;-72
2023/03/12 10:41:58;;;;;;;2.90;2.42;;;14.20;68.60;;;;;;10863213;32;20020;-72
2023/03/12 10:48:07;;;;;;;3.67;2.72;;;14.30;69.40;;;;;;10863188;32;20386;-72
2023/03/12 10:54:22;;;;;;;3.12;2.40;;;14.30;70.10;;;;;;10862420;32;20479;-72
2023/03/12 11:00:31;;;;;;;4.10;2.15;;;14.40;68.20;;;;;;10970705;32;20023;-72
2023/03/12 11:06:33;;;;;;;3.58;2.33;;;14.70;67.00;;;;;;10949392;32;20039;-72
2023/03/12 11:12:38;;;;;;;3.20;2.10;;;14.80;67.40;;;;;;10966009;32;20049;-72
2023/03/12 11:18:55;;;;;;;3.30;2.10;;;15.00;66.90;;;;;;10979419;32;20014;-72
2023/03/12 11:25:03;;;;;;;6.65;2.85;;;15.20;65.80;;;;;;10978580;32;20046;-72
2023/03/12 11:31:12;;;;;;;3.03;2.40;;;15.50;65.60;;;;;;10968213;32;20073;-72
2023/03/12 11:37:27;;;;;;;3.42;1.90;;;15.70;63.80;;;;;;10985985;32;20045;-71
2023/03/12 11:43:43;;;;;;;2.37;1.80;;;15.90;63.50;;;;;;10987022;32;20050;-72
2023/03/12 11:50:01;;;;;;;4.18;2.35;;;16.10;61.70;;;;;;10972294;32;20057;-72
2023/03/12 11:56:14;;;;;;;1.98;1.77;;;16.50;61.60;;;;;;10985970;32;20026;-72
2023/03/12 12:02:42;;;;;;;3.80;2.37;;;16.70;60.50;;;;;;10982699;32;20019;-72
2023/03/12 12:09:09;;;;;;;2.03;1.42;;;16.70;60.50;;;;;;10986052;32;20286;-72
2023/03/12 12:15:29;;;;;;;4.05;2.08;;;17.00;59.90;;;;;;10968952;32;20427;-72
2023/03/12 12:21:55;;;;;;;4.28;1.98;;;17.20;58.10;;;;;;10984842;32;20414;-71
2023/03/12 12:28:08;;;;;;;2.40;1.55;;;17.00;58.50;;;;;;10983907;32;20049;-72
2023/03/12 12:34:25;;;;;;;2.28;1.40;;;17.20;58.20;;;;;;10969617;32;20096;-71
2023/03/12 12:40:37;;;;;;;5.85;2.33;;;17.30;58.40;;;;;;10984058;32;20030;-72
2023/03/12 12:46:44;;;;;;;4.47;2.80;;;17.60;57.80;;;;;;10970020;32;20057;-72
2023/03/12 12:52:56;;;;;;;2.40;1.67;;;17.60;57.50;;;;;;10983876;32;20053;-72
2023/03/12 12:59:20;;;;;;;3.55;2.33;;;17.60;56.10;;;;;;10983091;32;20045;-72
2023/03/12 13:05:46;;;;;;;2.92;1.75;;;17.70;57.30;;;;;;10983423;32;20324;-72
2023/03/12 13:11:50;;;;;;;4.22;2.95;;;17.50;56.80;;;;;;10966277;32;20371;-72
2023/03/12 13:18:21;;;;;;;3.87;2.30;;;17.60;56.60;;;;;;10979567;32;20041;-72
2023/03/12 13:24:30;;;;;;;3.60;2.20;;;17.80;56.70;;;;;;10981480;32;20313;-72
2023/03/12 13:30:32;;;;;;;4.05;2.95;;;17.80;56.50;;;;;;10967844;32;20023;-72
2023/03/12 13:36:37;;;;;;;3.37;1.58;;;17.70;59.20;;;;;;10963995;32;20039;-72
2023/03/12 13:42:40;;;;;;;4.25;2.10;;;17.50;57.10;;;;;;10979678;32;20049;-72
2023/03/12 13:48:47;;;;;;;3.42;2.28;;;17.60;55.20;;;;;;10980702;32;20042;-72
2023/03/12 13:55:07;;;;;;;3.37;2.67;;;17.70;56.00;;;;;;10981216;32;20068;-72
2023/03/12 14:01:17;;;;;;;3.78;2.55;;;17.70;56.70;;;;;;10981252;32;20054;-72
2023/03/12 14:07:41;;;;;;;4.07;2.50;;;17.80;57.40;;;;;;10975901;32;20031;-72
2023/03/12 14:13:53;;;;;;;2.67;1.50;;;17.70;58.50;;;;;;10979238;32;20045;-72
2023/03/12 14:20:01;;;;;;;4.20;1.67;;;17.80;58.10;;;;;;10979047;32;20027;-72
2023/03/12 14:26:05;;;;;;;2.70;1.47;;;17.90;56.50;;;;;;10979342;32;20352;-73
2023/03/12 14:32:21;;;;;;;2.30;1.58;;;18.20;54.70;;;;;;10978769;32;20022;-73
2023/03/12 14:38:25;;;;;;;2.80;1.50;;;18.40;53.30;;;;;;10977226;32;20014;-74
2023/03/12 14:44:29;;;;;;;2.03;1.23;;;18.50;54.00;;;;;;10979058;32;20015;-74
2023/03/12 14:50:39;;;;;;;2.47;1.50;;;18.80;53.30;;;;;;10979615;32;20015;-74
2023/03/12 14:56:43;;;;;;;2.17;1.17;;;19.10;55.90;;;;;;10980209;32;20015;-74
2023/03/12 15:02:46;;;;;;;2.65;1.85;;;19.10;54.90;;;;;;10983852;32;20041;-74
2023/03/12 15:08:48;;;;;;;3.87;1.83;;;19.00;55.70;;;;;;10986166;32;20030;-74
2023/03/12 15:14:55;;;;;;;5.93;1.20;;;19.10;55.90;;;;;;10972622;32;20069;-73
2023/03/12 15:20:59;;;;;;;3.15;1.52;;;19.10;56.90;;;;;;10986768;32;20418;-74
2023/03/12 15:27:29;;;;;;;2.90;1.85;;;19.50;55.50;;;;;;10986168;32;20014;-74
2023/03/12 15:33:31;;;;;;;1.40;0.85;;;19.60;60.00;;;;;;10985720;32;20022;-73
2023/03/12 15:39:36;;;;;;;1.40;1.00;;;19.80;59.80;;;;;;10971810;32;20027;-74
2023/03/12 15:45:39;;;;;;;2.40;1.30;;;20.60;57.50;;;;;;10986414;32;20023;-74
2023/03/12 15:51:41;;;;;;;0.88;0.75;;;21.30;56.60;;;;;;10971322;32;20034;-74
2023/03/12 15:57:54;;;;;;;1.77;0.98;;;22.00;56.00;;;;;;10972406;32;20014;-74
2023/03/12 16:03:57;;;;;;;2.55;1.52;;;22.70;55.10;;;;;;10984356;32;20037;-74
2023/03/12 16:09:59;;;;;;;2.22;1.37;;;22.80;56.60;;;;;;10971954;32;20023;-74
2023/03/12 16:16:01;;;;;;;1.73;1.10;;;22.80;55.70;;;;;;10984246;32;20430;-74
2023/03/12 16:22:03;;;;;;;1.98;0.98;;;22.80;54.90;;;;;;10970001;32;20085;-74
2023/03/12 16:28:06;;;;;;;3.10;1.55;;;22.80;57.40;;;;;;10987345;27;20031;-73
2023/03/12 16:34:10;;;;;;;2.33;1.23;;;22.80;57.60;;;;;;11022226;32;20015;-74
2023/03/12 16:40:14;;;;;;;3.90;0.80;;;23.00;58.10;;;;;;11022014;32;20048;-74
2023/03/12 16:46:18;;;;;;;2.17;1.50;;;22.60;57.80;;;;;;11021788;32;20023;-74
2023/03/12 16:52:25;;;;;;;2.72;1.15;;;22.00;57.40;;;;;;11020927;32;20045;-74
2023/03/12 16:58:29;;;;;;;1.70;0.93;;;21.10;58.70;;;;;;11006864;32;20027;-74
2023/03/12 17:04:31;;;;;;;3.85;1.80;;;19.70;59.70;;;;;;11020847;32;20335;-74
2023/03/12 17:10:33;;;;;;;1.67;1.35;;;18.80;61.00;;;;;;11020385;32;20049;-74
2023/03/12 17:16:35;;;;;;;1.65;1.00;;;18.10;61.50;;;;;;11016575;32;20056;-74
2023/03/12 17:22:37;;;;;;;1.75;1.40;;;17.70;62.00;;;;;;11006502;32;20018;-73
2023/03/12 17:28:39;;;;;;;4.32;2.75;;;17.40;63.00;;;;;;11018243;32;20022;-74
2023/03/12 17:34:41;;;;;;;6.15;2.00;;;17.20;63.50;;;;;;11019165;32;20010;-73
2023/03/12 17:40:43;;;;;;;6.10;3.42;;;16.90;63.50;;;;;;11018958;32;20037;-74
2023/03/12 17:46:45;;;;;;;6.15;2.80;;;16.70;63.90;;;;;;11019969;32;20049;-73
2023/03/12 17:52:47;;;;;;;7.10;3.53;;;16.50;64.20;;;;;;11019810;32;20308;-73
2023/03/12 17:58:49;;;;;;;5.97;3.42;;;16.30;65.00;;;;;;11018584;32;20091;-74
2023/03/12 18:04:52;;;;;;;7.43;3.28;;;16.20;65.40;;;;;;11019543;32;20045;-73
2023/03/12 18:10:54;;;;;;;8.27;4.12;;;16.10;66.00;;;;;;11017012;32;20061;-73
2023/03/12 18:16:57;;;;;;;7.10;5.12;;;16.00;66.50;;;;;;11003040;32;20053;-73
2023/03/12 18:23:00;;;;;;;6.60;3.92;;;15.80;66.90;;;;;;10966640;32;20085;-73
2023/03/12 18:29:02;;;;;;;9.48;5.75;;;15.70;68.10;;;;;;10978704;32;20030;-73
2023/03/12 18:35:06;;;;;;;7.50;4.50;;;15.50;68.40;;;;;;10979713;32;20037;-73
2023/03/12 18:41:11;;;;;;;8.70;5.22;;;15.40;68.50;;;;;;10992167;32;20014;-73
2023/03/12 18:47:13;;;;;;;10.30;5.90;;;15.30;68.50;;;;;;10992122;32;20045;-73
2023/03/12 18:53:15;;;;;;;13.43;9.00;;;15.20;69.20;;;;;;10991932;32;20018;-73
2023/03/12 18:59:17;;;;;;;15.85;7.95;;;15.20;70.10;;;;;;10993168;32;20040;-71
2023/03/12 19:05:19;;;;;;;14.48;9.43;;;15.10;70.00;;;;;;10978829;32;20015;-71
2023/03/12 19:11:22;;;;;;;15.05;9.00;;;15.00;69.70;;;;;;10992326;32;20053;-71
2023/03/12 19:17:24;;;;;;;11.93;8.52;;;14.80;70.00;;;;;;10992765;32;20042;-71
2023/03/12 19:23:27;;;;;;;9.55;7.15;;;14.80;70.70;;;;;;10992691;32;20045;-71
2023/03/12 19:29:29;;;;;;;18.27;12.32;;;14.70;70.90;;;;;;10992423;32;20044;-71
2023/03/12 19:35:32;;;;;;;15.23;10.80;;;14.60;71.50;;;;;;10991896;32;20312;-71
2023/03/12 19:41:35;;;;;;;23.33;12.13;;;14.50;71.90;;;;;;10992376;32;20019;-71
2023/03/12 19:47:38;;;;;;;18.00;14.20;;;14.40;72.20;;;;;;10989251;32;20023;-70
2023/03/12 19:53:40;;;;;;;15.20;12.15;;;14.30;72.20;;;;;;10985504;32;20364;-71
2023/03/12 19:59:42;;;;;;;14.05;11.23;;;14.30;72.70;;;;;;10985268;32;20057;-71
2023/03/12 20:05:45;;;;;;;15.40;11.23;;;14.20;74.00;;;;;;10985102;32;20356;-70
2023/03/12 20:11:47;;;;;;;13.48;10.00;;;14.00;75.00;;;;;;10985337;32;20027;-70
2023/03/12 20:17:53;;;;;;;11.27;7.75;;;13.70;75.70;;;;;;10970146;32;20084;-73
2023/03/12 20:23:55;;;;;;;18.00;10.77;;;13.60;76.30;;;;;;10985077;32;20019;-73
2023/03/12 20:29:58;;;;;;;13.88;9.93;;;13.60;75.80;;;;;;10983989;32;20434;-73
2023/03/12 20:36:04;;;;;;;10.50;7.82;;;13.60;76.10;;;;;;10984013;32;20042;-70
2023/03/12 20:42:06;;;;;;;13.77;8.82;;;13.60;76.30;;;;;;10969269;32;20437;-71
2023/03/12 20:48:09;;;;;;;12.93;10.48;;;13.50;75.80;;;;;;10982882;32;20057;-70
2023/03/12 20:54:12;;;;;;;10.77;7.50;;;13.30;75.60;;;;;;10968867;32;20364;-73
2023/03/12 21:00:14;;;;;;;10.07;7.18;;;13.30;75.50;;;;;;10983068;32;20057;-73
2023/03/12 21:06:17;;;;;;;9.73;7.65;;;13.20;75.80;;;;;;10969598;32;20060;-73
2023/03/12 21:12:19;;;;;;;12.10;7.32;;;13.10;75.90;;;;;;10981854;32;20045;-73
2023/03/12 21:18:22;;;;;;;8.05;6.40;;;13.20;75.80;;;;;;10979082;32;20019;-73
2023/03/12 21:24:25;;;;;;;9.90;7.45;;;13.20;75.70;;;;;;10981702;32;20041;-73
2023/03/12 21:30:27;;;;;;;8.57;6.85;;;13.20;75.60;;;;;;10981377;32;20018;-73
2023/03/12 21:36:30;;;;;;;10.43;8.43;;;13.20;75.60;;;;;;10967500;32;20039;-73
2023/03/12 21:42:32;;;;;;;16.85;12.23;;;13.10;75.50;;;;;;10982262;32;20030;-73
2023/03/12 21:48:35;;;;;;;12.32;8.60;;;13.10;75.50;;;;;;10980766;32;20027;-73
2023/03/12 21:54:37;;;;;;;14.00;10.05;;;13.00;75.40;;;;;;10981913;32;20018;-73
2023/03/12 22:00:40;;;;;;;13.23;9.77;;;13.00;75.20;;;;;;10981054;32;20041;-73
2023/03/12 22:06:43;;;;;;;13.57;9.68;;;12.90;75.10;;;;;;10981453;32;20006;-73
2023/03/12 22:12:45;;;;;;;11.45;7.82;;;12.80;75.30;;;;;;10979573;32;20019;-73
2023/03/12 22:18:47;;;;;;;13.15;7.95;;;12.80;75.40;;;;;;10966095;32;20400;-73
2023/03/12 22:24:50;;;;;;;10.30;7.87;;;12.70;75.30;;;;;;10980384;32;20053;-73
2023/03/12 22:30:59;;;;;;;18.20;13.40;;;12.70;75.30;;;;;;10979288;32;20053;-73
2023/03/12 22:37:02;;;;;;;9.98;7.60;;;12.70;75.70;;;;;;10980034;32;20026;-73
2023/03/12 22:43:04;;;;;;;8.63;6.95;;;12.70;75.50;;;;;;10980668;32;20015;-73
2023/03/12 22:49:06;;;;;;;12.02;9.23;;;12.50;75.60;;;;;;10979213;32;20027;-73
2023/03/12 22:55:09;;;;;;;12.15;6.85;;;12.30;75.80;;;;;;10979301;32;20019;-70
2023/03/12 23:01:18;;;;;;;12.18;8.82;;;12.20;76.10;;;;;;10980369;32;20392;-70
2023/03/12 23:07:20;;;;;;;9.90;7.20;;;12.20;76.20;;;;;;10979627;32;20019;-70
2023/03/12 23:13:23;;;;;;;11.85;7.30;;;12.20;76.20;;;;;;10964804;32;20420;-70
2023/03/12 23:19:26;;;;;;;13.45;9.50;;;12.20;76.10;;;;;;10980598;32;20030;-70
2023/03/12 23:25:28;;;;;;;13.48;10.02;;;12.10;76.10;;;;;;10965130;32;20015;-70
2023/03/12 23:31:30;;;;;;;11.67;9.07;;;11.90;76.20;;;;;;10761706;32;7257040;-71
2023/03/12 23:37:32;;;;;;;14.60;9.95;;;12.00;76.30;;;;;;10986130;32;20385;-70
2023/03/12 23:43:35;;;;;;;21.30;16.70;;;12.00;76.40;;;;;;10985856;32;20037;-70
2023/03/12 23:49:37;;;;;;;18.62;16.23;;;12.10;76.10;;;;;;10985076;32;20018;-70
2023/03/12 23:55:39;;;;;;;15.68;11.55;;;12.10;76.30;;;;;;10972758;32;20015;-71
